Time;durP1;ratioP1;P1;durP2;ratioP2;P2;SDS_P1;SDS_P2;PMS_P1;PMS_P2;Temp;Humidity;BMP_temperature;BMP_pressure;BME280_temperature;BME280_humidity;BME280_pressure;Samples;Min_cycle;Max_cycle;Signal;HPM_P1;HPM_P2
2023/10/15 00:00:18;;;;;;;5.70;1.30;;;7.30;99.90;;;;;;5053195;28;20074;-78
2023/10/15 00:02:48;;;;;;;4.80;1.10;;;7.30;99.90;;;;;;5043990;28;20056;-77
2023/10/15 00:05:19;;;;;;;8.65;1.42;;;9.00;99.90;;;;;;5034139;28;20071;-78
2023/10/15 00:07:49;;;;;;;6.35;1.20;;;7.40;99.90;;;;;;5044814;28;20506;-78
2023/10/15 00:10:17;;;;;;;7.75;1.23;;;7.60;99.90;;;;;;5030914;28;20429;-78
2023/10/15 00:12:45;;;;;;;12.40;1.27;;;7.70;99.90;;;;;;5037936;28;20538;-77
2023/10/15 00:15:18;;;;;;;3.53;1.25;;;7.70;99.90;;;;;;5041025;28;20557;-77
2023/10/15 00:17:54;;;;;;;6.38;1.52;;;8.10;99.90;;;;;;5041678;28;20044;-78
2023/10/15 00:20:23;;;;;;;7.13;1.67;;;7.50;99.90;;;;;;5030836;28;20465;-78
2023/10/15 00:22:50;;;;;;;7.38;1.13;;;10.00;99.90;;;;;;5018955;28;20135;-78
2023/10/15 00:25:19;;;;;;;8.45;1.30;;;9.00;99.90;;;;;;5047135;28;20045;-78
2023/10/15 00:27:54;;;;;;;11.70;1.52;;;7.40;99.90;;;;;;5038410;28;20447;-78
2023/10/15 00:30:21;;;;;;;5.57;1.10;;;9.30;99.90;;;;;;5047542;28;20484;-78
2023/10/15 00:32:49;;;;;;;5.07;0.77;;;7.50;99.90;;;;;;5041249;28;20505;-78
2023/10/15 00:35:21;;;;;;;4.88;1.30;;;9.50;99.90;;;;;;5038577;28;20041;-78
2023/10/15 00:37:56;;;;;;;9.13;1.20;;;8.00;99.90;;;;;;5037322;28;20060;-78
2023/10/15 00:40:23;;;;;;;6.55;1.27;;;9.50;99.90;;;;;;5030853;28;20420;-77
2023/10/15 00:42:49;;;;;;;9.80;1.73;;;8.60;99.90;;;;;;5037329;28;20045;-78
2023/10/15 00:45:19;;;;;;;8.50;0.95;;;8.40;99.90;;;;;;5045029;28;20491;-78
2023/10/15 00:48:00;;;;;;;6.75;0.90;;;7.40;99.90;;;;;;5045713;28;20533;-78
2023/10/15 00:50:31;;;;;;;11.05;1.83;;;9.50;99.90;;;;;;5051287;28;20080;-78
2023/10/15 00:53:03;;;;;;;9.85;1.10;;;8.50;99.90;;;;;;5042571;28;20044;-77
2023/10/15 00:55:29;;;;;;;7.35;1.55;;;7.40;99.90;;;;;;5062165;28;20048;-77
2023/10/15 00:57:56;;;;;;;7.60;1.58;;;7.40;99.90;;;;;;5043516;28;20124;-78
2023/10/15 01:03:07;;;;;;;;;;;7.80;99.90;;;;;;5060759;28;20088;-77
2023/10/15 01:05:35;;;;;;;7.40;0.65;;;7.20;99.90;;;;;;5044190;28;19923;-77
2023/10/15 01:08:04;;;;;;;8.35;0.90;;;9.50;99.90;;;;;;5043417;28;20397;-78
2023/10/15 01:10:39;;;;;;;8.75;1.33;;;8.20;99.90;;;;;;5041796;28;20132;-78
2023/10/15 01:13:18;;;;;;;7.05;0.75;;;5.80;99.90;;;;;;5042892;28;20483;-77
2023/10/15 01:15:48;;;;;;;9.07;0.98;;;7.10;99.90;;;;;;5045254;28;20047;-77
2023/10/15 01:18:15;;;;;;;3.40;0.40;;;6.80;99.90;;;;;;5057782;28;20045;-78
2023/10/15 01:20:43;;;;;;;4.80;1.38;;;7.10;99.90;;;;;;5057323;28;20055;-78
2023/10/15 01:23:32;;;;;;;3.72;0.30;;;8.20;99.90;;;;;;5060277;28;20500;-77
2023/10/15 01:26:00;;;;;;;5.90;0.40;;;7.80;99.90;;;;;;5059824;28;20087;-78
2023/10/15 01:28:38;;;;;;;4.78;0.70;;;7.40;99.90;;;;;;5058443;28;20072;-78
2023/10/15 01:31:07;;;;;;;7.20;1.10;;;7.00;99.90;;;;;;5059038;28;20064;-77
2023/10/15 01:33:45;;;;;;;11.65;1.23;;;8.80;99.90;;;;;;5043607;28;20040;-77
2023/10/15 01:36:16;;;;;;;5.65;1.85;;;7.00;99.90;;;;;;5058643;28;20153;-77
2023/10/15 01:38:45;;;;;;;2.08;0.55;;;8.70;99.90;;;;;;5027360;28;20077;-77
2023/10/15 01:41:14;;;;;;;4.47;1.15;;;6.90;99.90;;;;;;5042608;28;20500;-77
2023/10/15 01:43:45;;;;;;;7.72;1.35;;;7.00;99.90;;;;;;5044290;28;20560;-77
2023/10/15 01:46:27;;;;;;;7.88;1.15;;;7.00;99.90;;;;;;5041221;28;20060;-77
2023/10/15 01:48:54;;;;;;;7.70;0.77;;;7.00;99.90;;;;;;5040685;28;20472;-77
2023/10/15 01:51:22;;;;;;;7.03;1.00;;;7.00;99.90;;;;;;5046255;28;20094;-78
2023/10/15 01:53:48;;;;;;;7.20;0.82;;;7.00;99.90;;;;;;5019245;28;20560;-77
2023/10/15 01:56:18;;;;;;;8.35;2.03;;;9.30;99.90;;;;;;5027367;28;20115;-77
2023/10/15 01:58:44;;;;;;;5.20;1.02;;;9.00;99.90;;;;;;5020374;28;20511;-77
2023/10/15 02:01:21;;;;;;;6.57;0.95;;;9.10;99.90;;;;;;5047454;28;20488;-77
2023/10/15 02:03:50;;;;;;;8.05;1.05;;;7.00;99.90;;;;;;5035459;28;20484;-78
2023/10/15 02:06:19;;;;;;;4.93;0.65;;;8.90;99.90;;;;;;5040266;28;20393;-77
2023/10/15 02:08:46;;;;;;;4.25;0.60;;;9.10;99.90;;;;;;5035014;28;20120;-77
2023/10/15 02:11:16;;;;;;;5.80;0.70;;;7.10;99.90;;;;;;5041612;28;20664;-77
2023/10/15 02:13:45;;;;;;;7.53;0.80;;;8.30;99.90;;;;;;5017599;28;20049;-77
2023/10/15 02:16:16;;;;;;;6.43;0.90;;;7.20;99.90;;;;;;5015178;28;20045;-77
2023/10/15 02:18:45;;;;;;;5.78;1.00;;;7.20;99.90;;;;;;5020283;28;20052;-77
2023/10/15 02:21:17;;;;;;;3.97;1.15;;;7.10;99.90;;;;;;5039860;28;20064;-77
2023/10/15 02:23:52;;;;;;;10.38;0.98;;;9.40;99.90;;;;;;5033727;28;20072;-77
2023/10/15 02:26:23;;;;;;;7.97;1.05;;;7.90;99.90;;;;;;5035757;28;20059;-77
2023/10/15 02:28:53;;;;;;;3.65;0.52;;;8.50;99.90;;;;;;5018513;28;20047;-77
2023/10/15 02:31:22;;;;;;;6.38;0.80;;;5.40;99.90;;;;;;5037517;28;20045;-77
2023/10/15 02:33:48;;;;;;;5.57;0.57;;;7.00;99.90;;;;;;5023514;28;20472;-77
2023/10/15 02:36:23;;;;;;;8.13;1.02;;;8.80;99.90;;;;;;5043903;28;20105;-77
2023/10/15 02:38:53;;;;;;;5.18;0.82;;;9.40;99.90;;;;;;5032687;28;20552;-77
2023/10/15 02:41:40;;;;;;;5.70;0.63;;;7.10;99.90;;;;;;5020146;28;20072;-77
2023/10/15 02:44:12;;;;;;;4.95;0.47;;;6.90;99.90;;;;;;5032464;28;20041;-77
2023/10/15 02:46:43;;;;;;;4.85;0.30;;;7.00;99.90;;;;;;5029804;28;20040;-77
2023/10/15 02:49:15;;;;;;;2.33;0.43;;;7.00;99.90;;;;;;5047507;28;20408;-77
2023/10/15 02:51:42;;;;;;;6.60;0.63;;;7.00;99.90;;;;;;5046070;28;20472;-77
2023/10/15 02:54:27;;;;;;;4.57;0.40;;;9.00;99.90;;;;;;5037976;28;20051;-77
2023/10/15 02:56:56;;;;;;;2.80;0.43;;;6.90;99.90;;;;;;5046896;28;20041;-77
2023/10/15 02:59:23;;;;;;;7.47;1.15;;;7.70;99.90;;;;;;5051887;28;20048;-77
2023/10/15 03:01:54;;;;;;;4.88;0.38;;;8.30;99.90;;;;;;5057818;28;20049;-78
2023/10/15 03:04:32;;;;;;;1.77;0.20;;;7.60;99.90;;;;;;5041508;28;20064;-77
2023/10/15 03:07:17;;;;;;;5.43;0.30;;;7.00;99.90;;;;;;5042237;28;20500;-78
2023/10/15 03:09:51;;;;;;;3.72;0.40;;;6.90;99.90;;;;;;5039280;28;20576;-78
2023/10/15 03:12:18;;;;;;;5.38;0.35;;;7.00;99.90;;;;;;5058814;28;20044;-78
2023/10/15 03:14:44;;;;;;;1.45;0.38;;;9.20;99.90;;;;;;5059998;28;20040;-77
2023/10/15 03:17:14;;;;;;;3.83;0.38;;;7.50;99.90;;;;;;5040480;28;20048;-77
2023/10/15 03:19:42;;;;;;;1.77;0.30;;;7.90;99.90;;;;;;5038867;28;20052;-77
2023/10/15 03:22:12;;;;;;;2.33;0.32;;;8.50;99.90;;;;;;5057470;28;20049;-77
2023/10/15 03:24:43;;;;;;;2.63;0.10;;;7.00;99.90;;;;;;5058624;28;20044;-77
2023/10/15 03:27:16;;;;;;;1.35;0.22;;;7.00;99.90;;;;;;5057171;28;20105;-77
2023/10/15 03:29:42;;;;;;;4.15;0.20;;;7.00;99.90;;;;;;5038841;28;20045;-78
2023/10/15 03:32:12;;;;;;;2.17;0.20;;;6.90;99.90;;;;;;5056273;28;20029;-77
2023/10/15 03:34:47;;;;;;;1.35;0.25;;;6.90;99.90;;;;;;5042446;28;20069;-77
2023/10/15 03:37:15;;;;;;;2.13;0.22;;;6.90;99.90;;;;;;5040814;28;20139;-77
2023/10/15 03:42:49;;;;;;;3.80;0.32;;;9.00;99.90;;;;;;5056607;28;20056;-77
2023/10/15 03:45:01;;;;;;;0.68;0.20;;;8.80;99.90;;;;;;5047991;28;20040;-78
2023/10/15 03:47:27;;;;;;;3.40;0.10;;;9.10;99.90;;;;;;5054944;28;20052;-78
2023/10/15 03:49:55;;;;;;;0.77;0.20;;;9.20;99.90;;;;;;5054518;28;20045;-78
2023/10/15 03:52:26;;;;;;;5.03;0.60;;;7.80;99.90;;;;;;5021099;28;20056;-77
2023/10/15 03:54:52;;;;;;;3.50;0.30;;;9.10;99.90;;;;;;5054022;28;20519;-77
2023/10/15 03:57:27;;;;;;;3.28;0.10;;;6.90;99.90;;;;;;5041696;28;20047;-78
2023/10/15 03:59:53;;;;;;;1.95;0.10;;;9.10;99.90;;;;;;5047785;28;20091;-78
2023/10/15 04:02:26;;;;;;;6.20;0.30;;;8.90;99.90;;;;;;5039803;28;20143;-78
2023/10/15 04:05:07;;;;;;;1.65;0.32;;;6.90;99.90;;;;;;5046927;28;20038;-77
2023/10/15 04:07:38;;;;;;;2.67;0.20;;;6.70;99.90;;;;;;5032223;28;20131;-77
2023/10/15 04:10:06;;;;;;;1.38;0.30;;;6.50;99.90;;;;;;5035199;28;20044;-77
2023/10/15 04:12:34;;;;;;;2.95;0.43;;;6.90;99.90;;;;;;5058825;28;20055;-77
2023/10/15 04:15:00;;;;;;;2.75;0.30;;;6.80;99.90;;;;;;5037935;28;20090;-77
2023/10/15 04:17:26;;;;;;;2.63;0.30;;;8.90;99.90;;;;;;5058975;28;20044;-77
2023/10/15 04:19:52;;;;;;;2.55;0.17;;;6.80;99.90;;;;;;5043863;28;20645;-77
2023/10/15 04:22:18;;;;;;;0.82;0.35;;;6.80;99.90;;;;;;5042660;28;20033;-77
2023/10/15 04:24:50;;;;;;;1.17;0.10;;;6.70;99.90;;;;;;5059209;28;20040;-77
2023/10/15 04:27:16;;;;;;;4.05;0.30;;;6.80;99.90;;;;;;5044935;28;20047;-78
2023/10/15 04:29:51;;;;;;;0.60;0.30;;;6.30;99.90;;;;;;5061543;28;20048;-78
2023/10/15 04:32:22;;;;;;;2.33;0.20;;;8.60;99.90;;;;;;5042821;28;20628;-77
2023/10/15 04:34:52;;;;;;;1.88;0.30;;;7.60;99.90;;;;;;5058588;28;20416;-77
2023/10/15 04:37:20;;;;;;;2.30;0.40;;;8.50;99.90;;;;;;5044351;28;20087;-77
2023/10/15 04:39:55;;;;;;;4.15;0.20;;;6.80;99.90;;;;;;5045165;28;20062;-77
2023/10/15 04:42:22;;;;;;;4.20;0.20;;;8.40;99.90;;;;;;5024548;28;20116;-77
2023/10/15 04:44:51;;;;;;;1.27;0.43;;;7.00;99.90;;;;;;5041931;28;20075;-77
2023/10/15 04:47:25;;;;;;;1.67;0.60;;;;;;;;;;5028302;28;20076;-78
2023/10/15 04:49:56;;;;;;;4.28;0.30;;;7.00;99.90;;;;;;5028017;28;20051;-77
2023/10/15 04:52:22;;;;;;;1.25;0.20;;;6.90;99.90;;;;;;5041975;28;20128;-77
2023/10/15 04:54:48;;;;;;;4.72;0.68;;;6.30;99.90;;;;;;5025215;28;20045;-77
2023/10/15 04:57:13;;;;;;;2.38;0.30;;;6.20;99.90;;;;;;5043604;28;20102;-78
2023/10/15 04:59:41;;;;;;;4.43;0.28;;;8.80;99.90;;;;;;5044806;28;20098;-77
2023/10/15 05:02:09;;;;;;;2.80;0.40;;;8.50;99.90;;;;;;5027073;28;20037;-78
2023/10/15 05:04:35;;;;;;;3.63;0.30;;;6.70;99.90;;;;;;4992078;28;20045;-78
2023/10/15 05:07:01;;;;;;;4.78;0.30;;;8.70;99.90;;;;;;5044379;28;20495;-78
2023/10/15 05:09:31;;;;;;;6.00;0.50;;;9.00;99.90;;;;;;5041124;28;20063;-77
2023/10/15 05:11:58;;;;;;;1.83;0.50;;;8.60;99.90;;;;;;5040454;28;20045;-77
2023/10/15 05:14:26;;;;;;;2.30;0.40;;;4.90;99.90;;;;;;5017853;28;20032;-77
2023/10/15 05:16:52;;;;;;;2.92;0.25;;;8.50;99.90;;;;;;5024576;28;20048;-78
2023/10/15 05:19:19;;;;;;;8.43;0.40;;;7.70;99.90;;;;;;5027038;28;20063;-77
2023/10/15 05:21:46;;;;;;;3.78;0.40;;;8.50;99.90;;;;;;5028043;28;20052;-78
2023/10/15 05:24:18;;;;;;;4.10;0.40;;;6.50;99.90;;;;;;5025459;28;20102;-77
2023/10/15 05:26:50;;;;;;;4.47;0.50;;;8.40;99.90;;;;;;5024675;28;20037;-78
2023/10/15 05:29:16;;;;;;;8.50;1.40;;;8.90;99.90;;;;;;5043758;28;20049;-78
2023/10/15 05:31:42;;;;;;;4.53;0.30;;;8.90;99.90;;;;;;5043353;28;20159;-78
2023/10/15 05:34:08;;;;;;;4.40;0.40;;;8.80;99.90;;;;;;5025660;28;20055;-76
2023/10/15 05:36:35;;;;;;;11.32;0.65;;;6.60;99.90;;;;;;5021381;28;20045;-77
2023/10/15 05:39:06;;;;;;;6.15;0.40;;;6.60;99.90;;;;;;5023790;28;20056;-77
2023/10/15 05:41:32;;;;;;;3.40;0.50;;;6.60;99.90;;;;;;5040593;28;20044;-77
2023/10/15 05:43:59;;;;;;;3.53;0.50;;;6.20;99.90;;;;;;5057491;28;20041;-77
2023/10/15 05:46:27;;;;;;;5.22;0.93;;;6.50;99.90;;;;;;5060331;28;20040;-77
2023/10/15 05:48:53;;;;;;;2.63;0.28;;;6.50;99.90;;;;;;5043797;28;20451;-77
2023/10/15 05:51:23;;;;;;;2.58;0.70;;;7.70;99.90;;;;;;5041288;28;20083;-77
2023/10/15 05:53:49;;;;;;;5.90;0.52;;;7.20;99.90;;;;;;5056506;28;20076;-77
2023/10/15 05:56:14;;;;;;;9.07;0.80;;;8.70;99.90;;;;;;5042985;28;20562;-77
2023/10/15 05:58:40;;;;;;;4.78;0.60;;;6.50;99.90;;;;;;5060499;28;20059;-77
2023/10/15 06:01:06;;;;;;;3.83;0.40;;;8.20;99.90;;;;;;5041658;28;20420;-77
2023/10/15 06:03:33;;;;;;;5.47;0.65;;;6.60;99.90;;;;;;5057193;28;20123;-77
2023/10/15 06:05:59;;;;;;;3.58;0.32;;;8.60;99.90;;;;;;5057094;28;20051;-77
2023/10/15 06:08:25;;;;;;;9.13;0.98;;;8.20;99.90;;;;;;5043495;28;20041;-77
2023/10/15 06:10:51;;;;;;;9.35;1.25;;;6.30;99.90;;;;;;5043340;28;20040;-77
2023/10/15 06:13:17;;;;;;;5.88;0.75;;;6.60;99.90;;;;;;5041321;28;20094;-77
2023/10/15 06:15:45;;;;;;;5.05;0.50;;;8.80;99.90;;;;;;5047412;28;20041;-77
2023/10/15 06:18:11;;;;;;;3.45;0.43;;;8.90;99.90;;;;;;5051166;28;20049;-77
2023/10/15 06:20:37;;;;;;;5.38;0.57;;;7.70;99.90;;;;;;5052590;28;20118;-77
2023/10/15 06:23:07;;;;;;;7.50;0.60;;;9.00;99.90;;;;;;5059347;28;20128;-76
2023/10/15 06:25:35;;;;;;;7.00;0.70;;;8.50;99.90;;;;;;5057331;28;20044;-77
2023/10/15 06:28:01;;;;;;;2.63;0.20;;;7.80;99.90;;;;;;5064669;28;20148;-77
2023/10/15 06:30:27;;;;;;;5.50;0.35;;;6.70;99.90;;;;;;5039613;28;20094;-77
2023/10/15 06:32:53;;;;;;;2.53;0.40;;;8.40;99.90;;;;;;5055711;28;20435;-77
2023/10/15 06:35:22;;;;;;;1.73;0.70;;;8.90;99.90;;;;;;5041775;28;20566;-77
2023/10/15 06:37:57;;;;;;;7.15;0.77;;;7.70;99.90;;;;;;5052593;28;20053;-77
2023/10/15 06:40:24;;;;;;;4.75;0.65;;;7.10;99.90;;;;;;5021657;28;20048;-77
2023/10/15 06:42:51;;;;;;;3.83;0.43;;;6.70;99.90;;;;;;5021575;28;20049;-77
2023/10/15 06:45:20;;;;;;;8.18;0.75;;;7.10;99.90;;;;;;5025527;28;20087;-77
2023/10/15 06:47:51;;;;;;;4.45;0.40;;;6.90;99.90;;;;;;5026067;28;20040;-76
2023/10/15 06:50:19;;;;;;;2.17;0.45;;;6.80;99.90;;;;;;5039687;28;20575;-76
2023/10/15 06:52:52;;;;;;;3.15;0.40;;;9.10;99.90;;;;;;5039501;28;20053;-77
2023/10/15 06:55:21;;;;;;;5.82;0.70;;;8.90;99.90;;;;;;5042567;28;20123;-77
2023/10/15 06:57:47;;;;;;;3.83;0.82;;;7.00;99.90;;;;;;5039651;28;20132;-76
2023/10/15 07:00:21;;;;;;;8.15;3.17;;;7.00;99.90;;;;;;5024134;28;20044;-77
2023/10/15 07:02:51;;;;;;;8.65;3.95;;;7.00;99.90;;;;;;5021897;28;20061;-77
2023/10/15 07:05:19;;;;;;;4.50;1.25;;;7.00;99.90;;;;;;5024985;28;20095;-77
2023/10/15 07:07:45;;;;;;;1.92;0.28;;;8.30;99.90;;;;;;5039238;28;20142;-77
2023/10/15 07:10:15;;;;;;;6.03;0.50;;;7.00;99.90;;;;;;5024759;28;20061;-77
2023/10/15 07:12:47;;;;;;;3.08;0.30;;;7.00;99.90;;;;;;5057158;28;20882;-78
2023/10/15 07:15:20;;;;;;;2.22;0.20;;;8.20;99.90;;;;;;5045686;28;20048;-78
2023/10/15 07:17:46;;;;;;;2.28;0.25;;;7.00;99.90;;;;;;5025275;28;20047;-78
2023/10/15 07:20:18;;;;;;;2.75;0.30;;;9.10;99.90;;;;;;5040642;28;20056;-78
2023/10/15 07:22:49;;;;;;;3.85;0.60;;;6.90;99.90;;;;;;5035858;28;20115;-76
2023/10/15 07:25:18;;;;;;;2.40;0.25;;;7.80;99.90;;;;;;4687455;28;9999658;-75
2023/10/15 07:27:45;;;;;;;2.25;0.32;;;6.80;99.90;;;;;;5023167;28;20040;-76
2023/10/15 07:30:15;;;;;;;5.15;0.55;;;8.70;99.90;;;;;;5025487;28;20036;-76
2023/10/15 07:32:44;;;;;;;3.95;0.30;;;8.00;99.90;;;;;;5039591;28;20088;-76
2023/10/15 07:35:12;;;;;;;2.90;0.43;;;6.50;99.90;;;;;;5031912;28;20396;-79
2023/10/15 07:37:40;;;;;;;7.10;0.50;;;6.60;99.90;;;;;;5043704;28;20603;-79
2023/10/15 07:40:16;;;;;;;2.95;0.40;;;8.60;99.90;;;;;;5037752;28;20052;-78
2023/10/15 07:42:48;;;;;;;5.50;0.45;;;6.70;99.90;;;;;;5040822;28;20040;-77
2023/10/15 07:45:14;;;;;;;3.20;0.40;;;6.70;99.90;;;;;;5055457;28;20044;-78
2023/10/15 07:47:41;;;;;;;5.22;1.05;;;6.70;99.90;;;;;;5057897;28;20506;-79
2023/10/15 07:50:23;;;;;;;3.10;0.50;;;8.20;99.90;;;;;;5037744;28;20499;-78
2023/10/15 07:52:49;;;;;;;4.07;0.50;;;8.90;99.90;;;;;;5049307;28;20044;-78
2023/10/15 07:55:16;;;;;;;3.70;0.70;;;6.60;99.90;;;;;;5052076;28;20036;-79
2023/10/15 07:57:41;;;;;;;4.28;1.15;;;8.50;99.90;;;;;;5051380;28;20048;-78
2023/10/15 08:00:15;;;;;;;0.98;0.28;;;6.60;99.90;;;;;;5049491;28;20044;-80
2023/10/15 08:02:49;;;;;;;4.88;0.73;;;6.80;99.90;;;;;;5037783;28;20051;-80
2023/10/15 08:05:15;;;;;;;6.68;0.70;;;9.00;99.90;;;;;;5037060;28;20045;-80
2023/10/15 08:07:43;;;;;;;5.65;1.00;;;6.70;99.90;;;;;;5056448;28;20071;-80
2023/10/15 08:10:09;;;;;;;4.55;0.60;;;6.80;99.90;;;;;;5052014;28;20044;-80
2023/10/15 08:12:35;;;;;;;3.47;0.82;;;;;;;;;;5040200;28;20442;-81
2023/10/15 08:15:01;;;;;;;2.70;0.60;;;7.00;99.90;;;;;;5055224;28;20032;-80
2023/10/15 08:17:31;;;;;;;4.85;0.40;;;8.70;99.90;;;;;;5072332;28;20036;-79
2023/10/15 08:20:04;;;;;;;6.10;1.15;;;8.70;99.90;;;;;;5023439;28;20040;-80
2023/10/15 08:22:32;;;;;;;3.38;0.90;;;7.00;99.90;;;;;;5049726;28;20394;-81
2023/10/15 08:25:01;;;;;;;5.95;0.38;;;8.10;99.90;;;;;;5039944;28;20509;-80
2023/10/15 08:27:30;;;;;;;2.47;0.55;;;7.60;99.90;;;;;;5054175;28;20075;-80
2023/10/15 08:30:04;;;;;;;4.20;0.60;;;9.10;99.90;;;;;;5062366;28;20146;-82
2023/10/15 08:32:32;;;;;;;5.28;0.80;;;6.90;99.90;;;;;;5017385;28;20396;-80
2023/10/15 08:35:08;;;;;;;5.47;0.50;;;7.00;99.90;;;;;;5064717;28;20040;-80
2023/10/15 08:37:35;;;;;;;2.78;0.68;;;7.00;99.90;;;;;;5015293;28;20052;-80
2023/10/15 08:40:04;;;;;;;5.93;0.60;;;9.30;99.90;;;;;;5020676;28;20045;-81
2023/10/15 08:42:37;;;;;;;4.32;1.02;;;8.00;99.90;;;;;;5030382;28;20362;-81
2023/10/15 08:45:08;;;;;;;6.65;1.30;;;7.30;99.90;;;;;;5024389;28;20044;-79
2023/10/15 08:47:34;;;;;;;4.07;1.13;;;7.10;99.90;;;;;;5054438;28;20044;-80
2023/10/15 08:50:01;;;;;;;7.05;1.17;;;7.50;99.90;;;;;;5036502;28;20481;-79
2023/10/15 08:52:31;;;;;;;4.50;0.65;;;7.10;99.90;;;;;;5057943;28;20550;-79
2023/10/15 08:55:01;;;;;;;2.65;0.50;;;9.20;99.90;;;;;;5059130;28;20037;-79
2023/10/15 08:57:28;;;;;;;8.18;1.00;;;7.20;99.90;;;;;;5057225;28;20032;-80
2023/10/15 08:59:57;;;;;;;7.93;0.57;;;9.10;99.90;;;;;;4342951;28;10000742;-84
2023/10/15 09:02:24;;;;;;;3.17;0.88;;;9.60;99.90;;;;;;5058977;28;20047;-81
2023/10/15 09:04:52;;;;;;;2.60;0.50;;;9.50;99.90;;;;;;5038397;28;20507;-81
2023/10/15 09:07:19;;;;;;;6.82;0.93;;;9.80;99.90;;;;;;5044622;28;20047;-82
2023/10/15 09:09:45;;;;;;;7.72;0.98;;;9.70;99.90;;;;;;5040705;28;20455;-83
2023/10/15 09:12:13;;;;;;;12.95;0.75;;;10.00;99.90;;;;;;5054532;28;20805;-80
2023/10/15 09:14:44;;;;;;;4.38;1.20;;;10.00;99.90;;;;;;5038492;28;20551;-79
2023/10/15 09:17:15;;;;;;;8.65;0.60;;;9.80;99.90;;;;;;5037024;28;20786;-79
2023/10/15 09:19:42;;;;;;;7.60;0.98;;;7.90;99.90;;;;;;5038112;28;20056;-82
2023/10/15 09:22:16;;;;;;;9.70;1.15;;;9.30;99.90;;;;;;5037114;28;20044;-81
2023/10/15 09:24:45;;;;;;;4.90;0.38;;;10.30;99.90;;;;;;5054838;28;20049;-81
2023/10/15 09:27:12;;;;;;;6.55;0.73;;;8.00;99.90;;;;;;5056666;28;20491;-77
2023/10/15 09:29:38;;;;;;;5.80;0.98;;;10.10;99.90;;;;;;5056652;28;20045;-81
2023/10/15 09:32:05;;;;;;;9.00;1.10;;;9.80;99.90;;;;;;5040519;28;20070;-80
2023/10/15 09:34:32;;;;;;;4.55;0.80;;;8.10;99.90;;;;;;5030818;28;20040;-78
2023/10/15 09:36:58;;;;;;;4.38;0.63;;;8.50;99.90;;;;;;5055808;28;20103;-77
2023/10/15 09:39:31;;;;;;;3.85;0.60;;;9.90;99.90;;;;;;5059266;28;20589;-80
2023/10/15 09:41:57;;;;;;;3.95;0.70;;;9.60;99.90;;;;;;5058833;28;20052;-80
2023/10/15 09:44:24;;;;;;;4.32;0.50;;;10.00;99.90;;;;;;5047331;28;20047;-81
2023/10/15 09:46:50;;;;;;;1.55;0.30;;;9.50;99.90;;;;;;5060518;28;20037;-82
2023/10/15 09:49:18;;;;;;;2.50;0.43;;;;;;;;;;5059141;28;20044;-80
2023/10/15 09:51:47;;;;;;;3.63;0.40;;;8.40;99.90;;;;;;5041150;28;20222;-80
2023/10/15 09:54:14;;;;;;;5.28;0.73;;;10.60;99.90;;;;;;5041457;28;20037;-81
2023/10/15 09:56:41;;;;;;;2.75;0.45;;;10.30;99.90;;;;;;5041627;28;20048;-83
2023/10/15 09:59:09;;;;;;;5.10;0.60;;;10.50;99.90;;;;;;5047078;28;20043;-81
2023/10/15 10:01:44;;;;;;;5.05;1.23;;;10.50;99.90;;;;;;5026504;28;20051;-83
2023/10/15 10:04:56;;;;;;;8.82;1.17;;;8.80;99.90;;;;;;5061770;28;20044;-85
2023/10/15 10:07:54;;;;;;;5.88;0.55;;;8.60;99.90;;;;;;5060237;28;20049;-82
2023/10/15 10:10:45;;;;;;;6.20;1.10;;;8.50;99.90;;;;;;5042936;28;20135;-83
2023/10/15 10:13:21;;;;;;;5.13;0.50;;;8.40;99.90;;;;;;5057658;28;20439;-81
2023/10/15 10:15:57;;;;;;;4.07;1.17;;;8.30;99.90;;;;;;5061267;28;20135;-82
2023/10/15 10:18:29;;;;;;;9.00;1.05;;;8.80;99.90;;;;;;5042966;28;20056;-81
2023/10/15 10:20:56;;;;;;;2.95;0.75;;;8.30;99.90;;;;;;5040082;28;20041;-82
2023/10/15 10:23:22;;;;;;;9.73;1.52;;;9.80;99.90;;;;;;5060159;28;20041;-80
2023/10/15 10:25:49;;;;;;;6.43;0.47;;;7.00;99.90;;;;;;5061553;28;20161;-83
2023/10/15 10:28:19;;;;;;;1.27;0.20;;;8.50;99.90;;;;;;5060190;28;20055;-84
2023/10/15 10:30:53;;;;;;;1.60;0.30;;;8.60;99.90;;;;;;5057771;28;20047;-80
2023/10/15 10:33:42;;;;;;;1.20;0.30;;;8.60;99.90;;;;;;5059885;28;20040;-82
2023/10/15 10:36:19;;;;;;;1.17;0.20;;;8.70;99.90;;;;;;5044330;28;20047;-83
2023/10/15 10:39:08;;;;;;;2.22;0.40;;;8.70;99.90;;;;;;5047890;28;20161;-82
2023/10/15 10:41:48;;;;;;;3.95;0.22;;;8.70;99.90;;;;;;5045199;28;20475;-80
2023/10/15 10:44:23;;;;;;;2.70;0.10;;;8.80;99.90;;;;;;5055549;28;20142;-76
2023/10/15 10:46:50;;;;;;;2.38;0.20;;;10.50;99.90;;;;;;5042568;28;20051;-79
2023/10/15 10:49:18;;;;;;;3.42;0.52;;;10.60;99.90;;;;;;5041282;28;20550;-79
2023/10/15 10:52:04;;;;;;;4.32;0.65;;;9.10;99.90;;;;;;5055422;28;20105;-80
2023/10/15 10:54:30;;;;;;;2.55;0.38;;;11.40;99.90;;;;;;5042590;28;20119;-80
2023/10/15 10:56:58;;;;;;;4.90;0.50;;;11.30;99.90;;;;;;5042019;28;20611;-83
2023/10/15 10:59:24;;;;;;;3.55;0.55;;;11.10;99.90;;;;;;5040234;28;20048;-80
2023/10/15 11:01:50;;;;;;;4.50;0.68;;;10.30;99.90;;;;;;5038444;28;20049;-79
2023/10/15 11:04:18;;;;;;;4.63;0.90;;;11.50;99.90;;;;;;5040216;28;20132;-82
2023/10/15 11:06:48;;;;;;;1.35;0.35;;;11.70;99.90;;;;;;5059319;28;20067;-83
2023/10/15 11:09:22;;;;;;;5.20;0.95;;;11.60;99.90;;;;;;5058006;28;20059;-79
2023/10/15 11:11:52;;;;;;;2.97;0.70;;;11.20;99.90;;;;;;5038867;28;20084;-82
2023/10/15 11:14:26;;;;;;;6.28;0.82;;;9.70;99.90;;;;;;5041395;28;20044;-81
2023/10/15 11:16:54;;;;;;;6.07;0.50;;;11.40;99.90;;;;;;5057947;28;20360;-79
2023/10/15 11:19:29;;;;;;;4.63;0.38;;;11.70;99.90;;;;;;5040523;28;20577;-78
2023/10/15 11:21:56;;;;;;;5.53;0.77;;;10.70;99.90;;;;;;5038643;28;20132;-82
2023/10/15 11:24:23;;;;;;;2.55;0.60;;;10.00;99.90;;;;;;5007159;28;20619;-78
2023/10/15 11:26:50;;;;;;;3.25;0.30;;;12.00;99.90;;;;;;5042036;28;20094;-80
2023/10/15 11:29:20;;;;;;;5.53;0.95;;;12.40;99.90;;;;;;5041078;28;20043;-79
2023/10/15 11:31:52;;;;;;;6.03;0.80;;;11.30;99.90;;;;;;5037500;28;20501;-78
2023/10/15 11:34:20;;;;;;;10.68;1.00;;;11.30;99.90;;;;;;5039927;28;20405;-80
2023/10/15 11:36:49;;;;;;;6.43;1.33;;;;;;;;;;5041668;28;20045;-79
2023/10/15 11:39:25;;;;;;;9.48;0.75;;;10.50;99.90;;;;;;5041299;28;20132;-79
2023/10/15 11:41:56;;;;;;;4.72;0.65;;;12.70;99.90;;;;;;5058578;28;20040;-79
2023/10/15 11:44:31;;;;;;;3.90;1.25;;;11.90;99.90;;;;;;5040142;28;20048;-80
2023/10/15 11:46:57;;;;;;;3.33;0.45;;;11.70;99.90;;;;;;5038524;28;20048;-78
2023/10/15 11:49:25;;;;;;;4.18;0.73;;;12.10;99.90;;;;;;5040010;28;20072;-78
2023/10/15 11:51:56;;;;;;;4.72;0.50;;;9.80;99.90;;;;;;5036889;28;20659;-80
2023/10/15 11:54:32;;;;;;;5.50;0.73;;;10.00;99.90;;;;;;5020359;28;20041;-78
2023/10/15 11:57:05;;;;;;;4.32;0.50;;;10.50;99.90;;;;;;5048644;28;20045;-78
2023/10/15 11:59:31;;;;;;;4.68;1.10;;;10.00;99.90;;;;;;5056481;28;20076;-77
2023/10/15 12:02:01;;;;;;;4.25;0.82;;;10.10;99.90;;;;;;5025416;28;20079;-83
2023/10/15 12:04:28;;;;;;;3.55;0.47;;;11.30;99.90;;;;;;5040446;28;20036;-79
2023/10/15 12:06:53;;;;;;;3.28;0.80;;;10.30;99.90;;;;;;5053709;28;20653;-79
2023/10/15 12:09:31;;;;;;;4.88;0.65;;;10.60;99.90;;;;;;5039129;28;20048;-77
2023/10/15 12:11:59;;;;;;;3.35;0.50;;;10.60;99.90;;;;;;5041654;28;20507;-76
2023/10/15 12:14:24;;;;;;;3.75;0.45;;;10.60;99.90;;;;;;5039586;28;20036;-81
2023/10/15 12:16:50;;;;;;;4.18;0.60;;;12.60;99.90;;;;;;5035133;28;20040;-80
2023/10/15 12:19:17;;;;;;;4.50;0.93;;;10.70;99.90;;;;;;5040404;28;20186;-80
2023/10/15 12:21:43;;;;;;;9.98;0.50;;;10.70;99.90;;;;;;5054923;28;20450;-79
2023/10/15 12:24:09;;;;;;;5.75;0.80;;;10.60;99.90;;;;;;5054739;28;20198;-80
2023/10/15 12:26:35;;;;;;;6.70;0.95;;;10.60;99.90;;;;;;5040703;28;20123;-78
2023/10/15 12:29:03;;;;;;;3.88;0.70;;;10.50;99.90;;;;;;5058265;28;20400;-80
2023/10/15 12:31:30;;;;;;;9.18;1.13;;;10.20;99.90;;;;;;5039236;28;20069;-78
2023/10/15 12:33:56;;;;;;;4.38;1.08;;;11.90;99.90;;;;;;5054596;28;20116;-77
2023/10/15 12:36:28;;;;;;;4.65;0.70;;;10.60;99.90;;;;;;5056872;28;20083;-78
2023/10/15 12:38:56;;;;;;;3.33;0.30;;;9.80;99.90;;;;;;5063313;28;20057;-79
2023/10/15 12:41:25;;;;;;;4.22;0.60;;;8.00;99.90;;;;;;5037646;28;20497;-78
2023/10/15 12:43:58;;;;;;;3.33;0.43;;;10.60;99.90;;;;;;5056159;28;20048;-79
2023/10/15 12:46:29;;;;;;;7.05;0.70;;;9.60;99.90;;;;;;5061145;28;20051;-81
2023/10/15 12:48:56;;;;;;;1.52;0.30;;;9.70;99.90;;;;;;5058809;28;20053;-80
2023/10/15 12:51:23;;;;;;;1.70;0.35;;;9.80;99.90;;;;;;5023276;28;20049;-81
2023/10/15 12:53:49;;;;;;;9.13;0.40;;;10.30;99.90;;;;;;5055706;28;20040;-80
2023/10/15 12:56:14;;;;;;;7.13;0.90;;;10.00;99.90;;;;;;5035176;28;20142;-80
2023/10/15 12:58:40;;;;;;;4.93;0.85;;;11.70;99.90;;;;;;5052521;28;20105;-81
2023/10/15 13:01:07;;;;;;;4.22;0.65;;;10.80;99.90;;;;;;5049445;28;20044;-80
2023/10/15 13:03:33;;;;;;;3.75;0.50;;;9.90;99.90;;;;;;5035456;28;20516;-80
2023/10/15 13:05:59;;;;;;;4.70;0.75;;;11.40;99.90;;;;;;5035550;28;20052;-80
2023/10/15 13:08:25;;;;;;;7.47;1.02;;;9.80;99.90;;;;;;5034899;28;20028;-79
2023/10/15 13:10:51;;;;;;;7.55;1.40;;;9.90;99.90;;;;;;5051989;28;20047;-80
2023/10/15 13:13:17;;;;;;;3.88;0.60;;;9.80;99.90;;;;;;5038495;28;20051;-79